Terminal Aerodrome Forecast
Issued by NWS

Home | Current Version | Previous Version | Text Only | Print | Product List | Glossary On
Versions: 1 2 3 4 5 6 7 8 9 10 11 12 13 14 15 16 17 18 19 20 21 22 23 24 25 26 27 28 29 30 31 32
783
FTUS43 KDMX 202335
TAFMCW
TAF
KMCW 202335Z 2100/2124 14005KT P6SM SKC
     FM210700 12004KT P6SM SHRA VCTS BKN080CB
     FM211200 13005KT P6SM BKN060
     FM212000 20007KT P6SM BKN090=

USA.gov is the U.S. government's official web portal to all federal, state and local government web resources and services.